createdAt,value
2023-05-05T00:04:25.624Z,13.65
2023-05-05T00:14:27.475Z,11.68
2023-05-05T00:24:29.428Z,12.15
2023-05-05T00:34:31.350Z,12.18
2023-05-05T00:44:40.896Z,10.93
2023-05-05T00:54:42.873Z,13.95
2023-05-05T01:04:44.817Z,9.68
2023-05-05T01:14:55.313Z,9.75
2023-05-05T01:25:35.778Z,9.20
2023-05-05T01:35:47.228Z,12.57
2023-05-05T01:45:49.624Z,9.70
2023-05-05T01:55:54.477Z,9.85
2023-05-05T02:05:58.333Z,11.93
2023-05-05T02:16:01.510Z,9.50
2023-05-05T02:26:09.867Z,11.07
2023-05-05T02:36:25.882Z,10.73
2023-05-05T02:46:32.833Z,9.63
2023-05-05T02:56:40.955Z,12.68
2023-05-05T03:06:48.892Z,11.18
2023-05-05T03:16:55.645Z,12.68
2023-05-05T03:26:58.386Z,12.68
2023-05-05T03:37:06.888Z,16.58
2023-05-05T03:47:09.118Z,14.50
2023-05-05T03:57:13.857Z,12.82
2023-05-05T04:07:16.858Z,12.68
2023-05-05T04:17:19.180Z,12.88
2023-05-05T04:27:21.197Z,16.20
2023-05-05T04:37:24.485Z,15.88
2023-05-05T04:47:26.467Z,15.63
2023-05-05T04:57:30.241Z,13.50
2023-05-05T05:07:32.644Z,12.95
2023-05-05T05:17:34.590Z,12.02
2023-05-05T05:27:36.692Z,13.82
2023-05-05T05:37:40.234Z,14.73
2023-05-05T05:47:42.546Z,15.63
2023-05-05T05:57:44.622Z,11.98
2023-05-05T06:07:48.096Z,13.88
2023-05-05T06:17:50.612Z,12.15
2023-05-05T06:27:52.537Z,13.55
2023-05-05T06:37:54.422Z,12.23
2023-05-05T06:47:56.394Z,15.13
2023-05-05T06:57:58.555Z,12.63
2023-05-05T07:08:00.858Z,11.15
2023-05-05T07:18:02.822Z,9.07
2023-05-05T07:28:05.302Z,8.38
2023-05-05T07:38:08.644Z,7.50
2023-05-05T07:48:11.586Z,6.22
2023-05-05T07:58:13.767Z,5.80
2023-05-05T08:08:15.815Z,4.78
2023-05-05T08:18:17.608Z,4.82
2023-05-05T08:28:19.609Z,5.88
2023-05-05T08:38:21.463Z,4.68
2023-05-05T08:48:25.411Z,5.15
2023-05-05T08:58:30.325Z,5.78
2023-05-05T09:08:33.116Z,5.40
2023-05-05T09:18:37.501Z,5.55
2023-05-05T09:28:51.291Z,5.90
2023-05-05T09:39:05.782Z,3.97
2023-05-05T09:49:15.649Z,5.78
2023-05-05T09:59:17.530Z,6.03
2023-05-05T10:09:19.509Z,5.28
2023-05-05T10:19:23.617Z,5.18
2023-05-05T10:29:57.820Z,5.05
2023-05-05T10:40:02.158Z,3.78
2023-05-05T10:50:30.657Z,4.07
2023-05-05T11:00:41.400Z,7.37
2023-05-05T11:10:46.204Z,4.85
2023-05-05T11:20:48.010Z,5.40
2023-05-05T11:30:56.280Z,4.55
2023-05-05T11:41:10.990Z,5.05
2023-05-05T11:51:13.713Z,5.57
2023-05-05T12:01:16.186Z,4.40
2023-05-05T12:11:18.877Z,6.13
2023-05-05T12:21:22.631Z,4.00
2023-05-05T12:31:41.608Z,4.93
2023-05-05T12:41:43.832Z,3.65
2023-05-05T12:51:56.608Z,3.95
2023-05-05T13:02:00.125Z,2.85
2023-05-05T13:12:02.379Z,3.10
2023-05-05T13:22:04.264Z,2.85
2023-05-05T13:32:08.243Z,3.03
2023-05-05T13:42:10.355Z,3.65
2023-05-05T13:52:12.259Z,2.10
2023-05-05T14:02:14.116Z,3.45
2023-05-05T14:12:15.892Z,2.65
2023-05-05T14:22:18.005Z,2.00
2023-05-05T14:32:19.914Z,2.55
2023-05-05T14:42:21.698Z,3.40
2023-05-05T14:52:23.582Z,2.30
2023-05-05T15:02:25.504Z,2.25
2023-05-05T15:12:27.947Z,1.77
2023-05-05T15:22:29.824Z,2.13
2023-05-05T15:32:31.824Z,4.97
2023-05-05T15:42:33.636Z,2.20
2023-05-05T15:52:35.470Z,2.83
2023-05-05T16:02:37.421Z,2.97
2023-05-05T16:12:39.752Z,2.58
2023-05-05T16:22:41.614Z,3.08
2023-05-05T16:32:43.596Z,8.98
2023-05-05T16:42:45.470Z,3.03
2023-05-05T16:52:47.332Z,2.88
2023-05-05T17:02:49.219Z,3.47
2023-05-05T17:12:51.042Z,6.15
2023-05-05T17:22:53.409Z,2.08
2023-05-05T17:32:55.273Z,3.28
2023-05-05T17:42:57.133Z,3.55
2023-05-05T17:52:58.926Z,3.33
2023-05-05T18:03:01.059Z,4.15
2023-05-05T18:13:03.241Z,2.75
2023-05-05T18:23:05.117Z,3.72
2023-05-05T18:33:06.955Z,4.22
2023-05-05T18:43:08.785Z,3.25
2023-05-05T18:53:10.853Z,2.97
2023-05-05T19:03:12.611Z,4.15
2023-05-05T19:13:14.496Z,3.92
2023-05-05T19:23:16.510Z,4.53
2023-05-05T19:33:18.292Z,5.20
2023-05-05T19:43:20.426Z,4.65
2023-05-05T19:53:22.302Z,4.35
2023-05-05T20:03:24.142Z,4.75
2023-05-05T20:13:26.060Z,4.57
2023-05-05T20:23:27.929Z,7.18
2023-05-05T20:33:29.877Z,5.25
2023-05-05T20:43:31.725Z,3.95
2023-05-05T20:53:33.548Z,4.30
2023-05-05T21:03:36.650Z,5.10
2023-05-05T21:13:38.598Z,4.85
2023-05-05T21:23:40.512Z,6.07
2023-05-05T21:33:42.796Z,6.20
2023-05-05T21:43:44.620Z,5.40
2023-05-05T21:53:46.489Z,5.72
2023-05-05T22:03:48.505Z,5.75
2023-05-05T22:13:50.594Z,5.50
2023-05-05T22:23:52.473Z,4.95
2023-05-05T22:33:54.688Z,5.45
2023-05-05T22:43:56.987Z,5.03
2023-05-05T22:53:58.987Z,6.65
2023-05-05T23:04:01.007Z,6.85
2023-05-05T23:14:03.005Z,5.72
2023-05-05T23:24:04.960Z,7.03
2023-05-05T23:34:06.902Z,6.03
2023-05-05T23:44:08.927Z,6.90
2023-05-05T23:54:10.782Z,7.88
